sensor_id;sensor_type;location;lat;lon;timestamp;pressure;altitude;pressure_sealevel;temperature;humidity
48680;BME280;34475;51.658;5.634;2022-07-24T00:00:00;101630;;;21.4;100.0
48680;BME280;34475;51.658;5.634;2022-07-24T00:01:00;101630;;;21.4;100.0
48680;BME280;34475;51.658;5.634;2022-07-24T00:02:00;101630;;;21.4;100.0
48680;BME280;34475;51.658;5.634;2022-07-24T00:03:00;101630;;;21.4;100.0
48680;BME280;34475;51.658;5.634;2022-07-24T00:04:00;101620;;;21.4;100.0
48680;BME280;34475;51.658;5.634;2022-07-24T00:05:00;101620;;;21.4;100.0
48680;BME280;34475;51.658;5.634;2022-07-24T00:06:00;101620;;;21.4;100.0
48680;BME280;34475;51.658;5.634;2022-07-24T00:07:00;101620;;;21.4;100.0
48680;BME280;34475;51.658;5.634;2022-07-24T00:08:00;101620;;;21.3;100.0
48680;BME280;34475;51.658;5.634;2022-07-24T00:09:00;101620;;;21.3;100.0
48680;BME280;34475;51.658;5.634;2022-07-24T00:10:00;101620;;;21.2;100.0
48680;BME280;34475;51.658;5.634;2022-07-24T00:11:00;101620;;;21.2;100.0
48680;BME280;34475;51.658;5.634;2022-07-24T00:12:00;101620;;;21.2;100.0
48680;BME280;34475;51.658;5.634;2022-07-24T00:13:00;101620;;;21.2;100.0
48680;BME280;34475;51.658;5.634;2022-07-24T00:14:00;101620;;;21.2;100.0
48680;BME280;34475;51.658;5.634;2022-07-24T00:15:00;101620;;;21.2;100.0
48680;BME280;34475;51.658;5.634;2022-07-24T00:16:00;101620;;;21.1;100.0
48680;BME280;34475;51.658;5.634;2022-07-24T00:17:00;101620;;;21.1;100.0
48680;BME280;34475;51.658;5.634;2022-07-24T00:18:00;101620;;;21.1;100.0
48680;BME280;34475;51.658;5.634;2022-07-24T00:19:00;101620;;;21.1;100.0
48680;BME280;34475;51.658;5.634;2022-07-24T00:20:00;101620;;;21.1;100.0
48680;BME280;34475;51.658;5.634;2022-07-24T00:21:00;101620;;;21.1;100.0
48680;BME280;34475;51.658;5.634;2022-07-24T00:22:00;101620;;;21.2;100.0
48680;BME280;34475;51.658;5.634;2022-07-24T00:23:00;101620;;;21.2;100.0
48680;BME280;34475;51.658;5.634;2022-07-24T00:24:00;101620;;;21.1;100.0
48680;BME280;34475;51.658;5.634;2022-07-24T00:25:00;101620;;;21.1;100.0
48680;BME280;34475;51.658;5.634;2022-07-24T00:26:00;101630;;;21.1;100.0
48680;BME280;34475;51.658;5.634;2022-07-24T00:27:00;101630;;;21.1;100.0
48680;BME280;34475;51.658;5.634;2022-07-24T00:28:00;101620;;;21.1;100.0
48680;BME280;34475;51.658;5.634;2022-07-24T00:29:00;101620;;;21.1;100.0
48680;BME280;34475;51.658;5.634;2022-07-24T00:30:00;101620;;;21.0;100.0
48680;BME280;34475;51.658;5.634;2022-07-24T00:31:00;101620;;;21.0;100.0
48680;BME280;34475;51.658;5.634;2022-07-24T00:32:00;101620;;;21.1;100.0
48680;BME280;34475;51.658;5.634;2022-07-24T00:33:00;101620;;;21.1;100.0
48680;BME280;34475;51.658;5.634;2022-07-24T00:34:00;101620;;;21.1;100.0
48680;BME280;34475;51.658;5.634;2022-07-24T00:35:00;101620;;;21.1;100.0
48680;BME280;34475;51.658;5.634;2022-07-24T00:36:00;101620;;;21.1;100.0
48680;BME280;34475;51.658;5.634;2022-07-24T00:37:00;101620;;;21.1;100.0
48680;BME280;34475;51.658;5.634;2022-07-24T00:38:00;101620;;;21.0;100.0
48680;BME280;34475;51.658;5.634;2022-07-24T00:39:00;101620;;;21.0;100.0
48680;BME280;34475;51.658;5.634;2022-07-24T00:40:00;101620;;;21.0;100.0
48680;BME280;34475;51.658;5.634;2022-07-24T00:41:00;101620;;;21.0;100.0
48680;BME280;34475;51.658;5.634;2022-07-24T00:42:00;101620;;;21.0;100.0
48680;BME280;34475;51.658;5.634;2022-07-24T00:43:00;101620;;;21.0;100.0
48680;BME280;34475;51.658;5.634;2022-07-24T00:44:15;101620;;;20.8;100.0
48680;BME280;34475;51.658;5.634;2022-07-24T00:45:00;101620;;;20.8;100.0
48680;BME280;34475;51.658;5.634;2022-07-24T00:46:00;101620;;;20.9;100.0
48680;BME280;34475;51.658;5.634;2022-07-24T00:47:00;101620;;;20.9;100.0
48680;BME280;34475;51.658;5.634;2022-07-24T00:48:00;101620;;;20.9;100.0
48680;BME280;34475;51.658;5.634;2022-07-24T00:49:00;101620;;;20.9;100.0
48680;BME280;34475;51.658;5.634;2022-07-24T00:50:00;101620;;;20.9;100.0
48680;BME280;34475;51.658;5.634;2022-07-24T00:51:00;101620;;;20.9;100.0
48680;BME280;34475;51.658;5.634;2022-07-24T00:52:00;101630;;;20.9;100.0
48680;BME280;34475;51.658;5.634;2022-07-24T00:53:00;101630;;;20.9;100.0
48680;BME280;34475;51.658;5.634;2022-07-24T00:54:02;101630;;;20.9;100.0
48680;BME280;34475;51.658;5.634;2022-07-24T00:55:00;101630;;;20.9;100.0
48680;BME280;34475;51.658;5.634;2022-07-24T00:56:00;101620;;;20.8;100.0
48680;BME280;34475;51.658;5.634;2022-07-24T00:57:00;101620;;;20.8;100.0
48680;BME280;34475;51.658;5.634;2022-07-24T00:58:00;101620;;;20.6;100.0
48680;BME280;34475;51.658;5.634;2022-07-24T00:59:00;101620;;;20.6;100.0
48680;BME280;34475;51.658;5.634;2022-07-24T01:00:00;101620;;;20.5;100.0
48680;BME280;34475;51.658;5.634;2022-07-24T01:01:00;101620;;;20.5;100.0
48680;BME280;34475;51.658;5.634;2022-07-24T01:02:00;101620;;;20.6;100.0
48680;BME280;34475;51.658;5.634;2022-07-24T01:03:00;101620;;;20.6;100.0
48680;BME280;34475;51.658;5.634;2022-07-24T01:04:00;101620;;;20.6;100.0
48680;BME280;34475;51.658;5.634;2022-07-24T01:05:00;101620;;;20.6;100.0
48680;BME280;34475;51.658;5.634;2022-07-24T01:06:00;101620;;;20.5;100.0
48680;BME280;34475;51.658;5.634;2022-07-24T01:07:00;101620;;;20.5;100.0
48680;BME280;34475;51.658;5.634;2022-07-24T01:08:00;101620;;;20.5;100.0
48680;BME280;34475;51.658;5.634;2022-07-24T01:09:00;101620;;;20.5;100.0
48680;BME280;34475;51.658;5.634;2022-07-24T01:10:00;101620;;;20.6;100.0
48680;BME280;34475;51.658;5.634;2022-07-24T01:11:01;101620;;;20.6;100.0
48680;BME280;34475;51.658;5.634;2022-07-24T01:12:00;101620;;;20.6;100.0
48680;BME280;34475;51.658;5.634;2022-07-24T01:13:00;101620;;;20.6;100.0
48680;BME280;34475;51.658;5.634;2022-07-24T01:14:00;101620;;;20.5;100.0
48680;BME280;34475;51.658;5.634;2022-07-24T01:15:00;101620;;;20.5;100.0
48680;BME280;34475;51.658;5.634;2022-07-24T01:16:00;101620;;;20.5;100.0
48680;BME280;34475;51.658;5.634;2022-07-24T01:17:00;101620;;;20.5;100.0
48680;BME280;34475;51.658;5.634;2022-07-24T01:18:00;101610;;;20.5;100.0
48680;BME280;34475;51.658;5.634;2022-07-24T01:19:00;101610;;;20.5;100.0
48680;BME280;34475;51.658;5.634;2022-07-24T01:20:00;101610;;;20.1;100.0
48680;BME280;34475;51.658;5.634;2022-07-24T01:21:00;101610;;;20.1;100.0
48680;BME280;34475;51.658;5.634;2022-07-24T01:22:00;101610;;;20.4;100.0
48680;BME280;34475;51.658;5.634;2022-07-24T01:23:00;101610;;;20.4;100.0
48680;BME280;34475;51.658;5.634;2022-07-24T01:24:00;101600;;;20.4;100.0
48680;BME280;34475;51.658;5.634;2022-07-24T01:25:00;101600;;;20.4;100.0
48680;BME280;34475;51.658;5.634;2022-07-24T01:26:00;101610;;;20.0;100.0
48680;BME280;34475;51.658;5.634;2022-07-24T01:27:00;101610;;;20.0;100.0
48680;BME280;34475;51.658;5.634;2022-07-24T01:28:00;101600;;;20.2;100.0
48680;BME280;34475;51.658;5.634;2022-07-24T01:29:00;101600;;;20.2;100.0
48680;BME280;34475;51.658;5.634;2022-07-24T01:30:00;101600;;;20.2;100.0
48680;BME280;34475;51.658;5.634;2022-07-24T01:31:00;101600;;;20.2;100.0
48680;BME280;34475;51.658;5.634;2022-07-24T01:32:00;101600;;;20.1;100.0
48680;BME280;34475;51.658;5.634;2022-07-24T01:33:00;101600;;;20.1;100.0
48680;BME280;34475;51.658;5.634;2022-07-24T01:34:00;101600;;;20.1;100.0
48680;BME280;34475;51.658;5.634;2022-07-24T01:35:00;101600;;;20.1;100.0
48680;BME280;34475;51.658;5.634;2022-07-24T01:36:00;101600;;;20.2;100.0
48680;BME280;34475;51.658;5.634;2022-07-24T01:37:00;101600;;;20.2;100.0
48680;BME280;34475;51.658;5.634;2022-07-24T01:38:00;101590;;;20.3;100.0
48680;BME280;34475;51.658;5.634;2022-07-24T01:39:00;101590;;;20.3;100.0
48680;BME280;34475;51.658;5.634;2022-07-24T01:40:00;101590;;;20.0;100.0
48680;BME280;34475;51.658;5.634;2022-07-24T01:41:00;101590;;;20.0;100.0
48680;BME280;34475;51.658;5.634;2022-07-24T01:42:00;101590;;;19.9;100.0
48680;BME280;34475;51.658;5.634;2022-07-24T01:43:00;101590;;;19.9;100.0
48680;BME280;34475;51.658;5.634;2022-07-24T01:44:00;101590;;;19.9;100.0
48680;BME280;34475;51.658;5.634;2022-07-24T01:45:00;101590;;;19.9;100.0
48680;BME280;34475;51.658;5.634;2022-07-24T01:46:00;101590;;;20.0;100.0
48680;BME280;34475;51.658;5.634;2022-07-24T01:47:00;101590;;;20.0;100.0
48680;BME280;34475;51.658;5.634;2022-07-24T01:48:00;101590;;;20.1;100.0
48680;BME280;34475;51.658;5.634;2022-07-24T01:49:00;101590;;;20.1;100.0
48680;BME280;34475;51.658;5.634;2022-07-24T01:50:00;101580;;;20.1;100.0
48680;BME280;34475;51.658;5.634;2022-07-24T01:51:00;101580;;;20.1;100.0
48680;BME280;34475;51.658;5.634;2022-07-24T01:52:00;101580;;;20.2;100.0
48680;BME280;34475;51.658;5.634;2022-07-24T01:53:00;101580;;;20.2;100.0
48680;BME280;34475;51.658;5.634;2022-07-24T01:54:00;101580;;;20.1;100.0
48680;BME280;34475;51.658;5.634;2022-07-24T01:55:00;101580;;;20.1;100.0
48680;BME280;34475;51.658;5.634;2022-07-24T01:56:00;101580;;;20.2;100.0
48680;BME280;34475;51.658;5.634;2022-07-24T01:57:00;101580;;;20.2;100.0
48680;BME280;34475;51.658;5.634;2022-07-24T01:58:00;101580;;;20.1;100.0
48680;BME280;34475;51.658;5.634;2022-07-24T01:59:00;101580;;;20.1;100.0
48680;BME280;34475;51.658;5.634;2022-07-24T02:00:00;101580;;;20.1;100.0
48680;BME280;34475;51.658;5.634;2022-07-24T02:01:00;101580;;;20.1;100.0
48680;BME280;34475;51.658;5.634;2022-07-24T02:02:00;101580;;;20.0;100.0
48680;BME280;34475;51.658;5.634;2022-07-24T02:03:00;101580;;;20.0;100.0
48680;BME280;34475;51.658;5.634;2022-07-24T02:04:00;101580;;;20.0;100.0
48680;BME280;34475;51.658;5.634;2022-07-24T02:05:00;101580;;;20.0;100.0
48680;BME280;34475;51.658;5.634;2022-07-24T02:06:00;101580;;;19.8;100.0
48680;BME280;34475;51.658;5.634;2022-07-24T02:07:00;101580;;;19.8;100.0
48680;BME280;34475;51.658;5.634;2022-07-24T02:08:00;101580;;;19.9;100.0
48680;BME280;34475;51.658;5.634;2022-07-24T02:09:00;101580;;;19.9;100.0
48680;BME280;34475;51.658;5.634;2022-07-24T02:10:00;101570;;;19.9;100.0
48680;BME280;34475;51.658;5.634;2022-07-24T02:11:00;101570;;;19.9;100.0
48680;BME280;34475;51.658;5.634;2022-07-24T02:12:00;101580;;;19.9;100.0
48680;BME280;34475;51.658;5.634;2022-07-24T02:13:00;101580;;;19.9;100.0
48680;BME280;34475;51.658;5.634;2022-07-24T02:14:00;101570;;;20.0;100.0
48680;BME280;34475;51.658;5.634;2022-07-24T02:15:00;101570;;;20.0;100.0
48680;BME280;34475;51.658;5.634;2022-07-24T02:16:00;101570;;;19.8;100.0
48680;BME280;34475;51.658;5.634;2022-07-24T02:17:00;101570;;;19.8;100.0
48680;BME280;34475;51.658;5.634;2022-07-24T02:18:00;101570;;;19.8;100.0
48680;BME280;34475;51.658;5.634;2022-07-24T02:19:00;101570;;;19.8;100.0
48680;BME280;34475;51.658;5.634;2022-07-24T02:20:00;101570;;;19.6;100.0
48680;BME280;34475;51.658;5.634;2022-07-24T02:21:00;101570;;;19.6;100.0
48680;BME280;34475;51.658;5.634;2022-07-24T02:22:00;101570;;;19.5;100.0
48680;BME280;34475;51.658;5.634;2022-07-24T02:23:00;101570;;;19.5;100.0
48680;BME280;34475;51.658;5.634;2022-07-24T02:24:00;101570;;;19.7;100.0
48680;BME280;34475;51.658;5.634;2022-07-24T02:25:00;101570;;;19.7;100.0
48680;BME280;34475;51.658;5.634;2022-07-24T02:26:00;101580;;;19.8;100.0
48680;BME280;34475;51.658;5.634;2022-07-24T02:27:00;101580;;;19.8;100.0
48680;BME280;34475;51.658;5.634;2022-07-24T02:28:00;101580;;;19.8;100.0
48680;BME280;34475;51.658;5.634;2022-07-24T02:29:00;101580;;;19.8;100.0
48680;BME280;34475;51.658;5.634;2022-07-24T02:30:00;101580;;;19.8;100.0
48680;BME280;34475;51.658;5.634;2022-07-24T02:31:00;101580;;;19.8;100.0
48680;BME280;34475;51.658;5.634;2022-07-24T02:32:00;101580;;;19.8;100.0
48680;BME280;34475;51.658;5.634;2022-07-24T02:33:00;101580;;;19.8;100.0
48680;BME280;34475;51.658;5.634;2022-07-24T02:34:00;101580;;;19.8;100.0
48680;BME280;34475;51.658;5.634;2022-07-24T02:35:00;101580;;;19.8;100.0
48680;BME280;34475;51.658;5.634;2022-07-24T02:36:00;101590;;;19.8;100.0
48680;BME280;34475;51.658;5.634;2022-07-24T02:37:00;101590;;;19.8;100.0
48680;BME280;34475;51.658;5.634;2022-07-24T02:38:00;101590;;;19.6;100.0
48680;BME280;34475;51.658;5.634;2022-07-24T02:39:00;101590;;;19.6;100.0
48680;BME280;34475;51.658;5.634;2022-07-24T02:40:00;101590;;;19.6;100.0
48680;BME280;34475;51.658;5.634;2022-07-24T02:41:00;101590;;;19.6;100.0
48680;BME280;34475;51.658;5.634;2022-07-24T02:42:00;101590;;;19.5;100.0
48680;BME280;34475;51.658;5.634;2022-07-24T02:43:00;101590;;;19.5;100.0
48680;BME280;34475;51.658;5.634;2022-07-24T02:44:00;101590;;;19.5;100.0
48680;BME280;34475;51.658;5.634;2022-07-24T02:45:00;101590;;;19.5;100.0
48680;BME280;34475;51.658;5.634;2022-07-24T02:46:00;101590;;;19.6;100.0
48680;BME280;34475;51.658;5.634;2022-07-24T02:47:00;101590;;;19.6;100.0
48680;BME280;34475;51.658;5.634;2022-07-24T02:48:00;101590;;;19.6;100.0
48680;BME280;34475;51.658;5.634;2022-07-24T02:49:00;101590;;;19.6;100.0
48680;BME280;34475;51.658;5.634;2022-07-24T02:50:00;101590;;;19.6;100.0
48680;BME280;34475;51.658;5.634;2022-07-24T02:51:00;101590;;;19.6;100.0
48680;BME280;34475;51.658;5.634;2022-07-24T02:52:00;101590;;;19.7;100.0
48680;BME280;34475;51.658;5.634;2022-07-24T02:53:00;101590;;;19.7;100.0
48680;BME280;34475;51.658;5.634;2022-07-24T02:54:00;101590;;;19.6;100.0
48680;BME280;34475;51.658;5.634;2022-07-24T02:55:00;101590;;;19.6;100.0
48680;BME280;34475;51.658;5.634;2022-07-24T02:56:00;101590;;;19.6;100.0
48680;BME280;34475;51.658;5.634;2022-07-24T02:57:00;101590;;;19.6;100.0
48680;BME280;34475;51.658;5.634;2022-07-24T02:58:00;101590;;;19.6;100.0
48680;BME280;34475;51.658;5.634;2022-07-24T02:59:00;101590;;;19.6;100.0
48680;BME280;34475;51.658;5.634;2022-07-24T03:00:00;101580;;;19.5;100.0
48680;BME280;34475;51.658;5.634;2022-07-24T03:01:00;101580;;;19.5;100.0
48680;BME280;34475;51.658;5.634;2022-07-24T03:02:00;101580;;;19.6;100.0
48680;BME280;34475;51.658;5.634;2022-07-24T03:03:00;101580;;;19.6;100.0
48680;BME280;34475;51.658;5.634;2022-07-24T03:04:00;101580;;;19.6;100.0
48680;BME280;34475;51.658;5.634;2022-07-24T03:05:00;101580;;;19.6;100.0
48680;BME280;34475;51.658;5.634;2022-07-24T03:06:00;101580;;;19.6;100.0
48680;BME280;34475;51.658;5.634;2022-07-24T03:07:00;101580;;;19.6;100.0
48680;BME280;34475;51.658;5.634;2022-07-24T03:08:00;101580;;;19.5;100.0
48680;BME280;34475;51.658;5.634;2022-07-24T03:09:00;101580;;;19.5;100.0
48680;BME280;34475;51.658;5.634;2022-07-24T03:10:00;101580;;;19.6;100.0
48680;BME280;34475;51.658;5.634;2022-07-24T03:11:00;101580;;;19.6;100.0
48680;BME280;34475;51.658;5.634;2022-07-24T03:12:00;101580;;;19.6;100.0
48680;BME280;34475;51.658;5.634;2022-07-24T03:13:00;101580;;;19.6;100.0
48680;BME280;34475;51.658;5.634;2022-07-24T03:14:00;101580;;;19.5;100.0
48680;BME280;34475;51.658;5.634;2022-07-24T03:15:00;101580;;;19.5;100.0
48680;BME280;34475;51.658;5.634;2022-07-24T03:16:00;101570;;;19.5;100.0
48680;BME280;34475;51.658;5.634;2022-07-24T03:17:00;101570;;;19.5;100.0
48680;BME280;34475;51.658;5.634;2022-07-24T03:18:00;101580;;;19.5;100.0
48680;BME280;34475;51.658;5.634;2022-07-24T03:19:00;101580;;;19.5;100.0
48680;BME280;34475;51.658;5.634;2022-07-24T03:20:00;101570;;;19.5;100.0
48680;BME280;34475;51.658;5.634;2022-07-24T03:21:00;101570;;;19.5;100.0
48680;BME280;34475;51.658;5.634;2022-07-24T03:22:00;101580;;;19.4;100.0
48680;BME280;34475;51.658;5.634;2022-07-24T03:23:00;101580;;;19.4;100.0
48680;BME280;34475;51.658;5.634;2022-07-24T03:24:00;101580;;;19.3;100.0
48680;BME280;34475;51.658;5.634;2022-07-24T03:25:00;101580;;;19.3;100.0
48680;BME280;34475;51.658;5.634;2022-07-24T03:26:00;101580;;;19.3;100.0
48680;BME280;34475;51.658;5.634;2022-07-24T03:27:00;101580;;;19.3;100.0
48680;BME280;34475;51.658;5.634;2022-07-24T03:28:00;101580;;;19.2;100.0
48680;BME280;34475;51.658;5.634;2022-07-24T03:29:00;101580;;;19.2;100.0
48680;BME280;34475;51.658;5.634;2022-07-24T03:30:00;101580;;;19.2;100.0
48680;BME280;34475;51.658;5.634;2022-07-24T03:31:00;101580;;;19.2;100.0
48680;BME280;34475;51.658;5.634;2022-07-24T03:32:00;101580;;;19.2;100.0
48680;BME280;34475;51.658;5.634;2022-07-24T03:33:00;101580;;;19.2;100.0
48680;BME280;34475;51.658;5.634;2022-07-24T03:34:00;101580;;;19.2;100.0
48680;BME280;34475;51.658;5.634;2022-07-24T03:35:00;101580;;;19.2;100.0
48680;BME280;34475;51.658;5.634;2022-07-24T03:36:00;101570;;;19.2;100.0
48680;BME280;34475;51.658;5.634;2022-07-24T03:37:00;101570;;;19.2;100.0
48680;BME280;34475;51.658;5.634;2022-07-24T03:38:00;101570;;;19.2;100.0
48680;BME280;34475;51.658;5.634;2022-07-24T03:39:00;101570;;;19.2;100.0
48680;BME280;34475;51.658;5.634;2022-07-24T03:40:00;101570;;;19.2;100.0
48680;BME280;34475;51.658;5.634;2022-07-24T03:41:00;101570;;;19.2;100.0
48680;BME280;34475;51.658;5.634;2022-07-24T03:42:00;101570;;;19.2;100.0
48680;BME280;34475;51.658;5.634;2022-07-24T03:43:00;101570;;;19.2;100.0
48680;BME280;34475;51.658;5.634;2022-07-24T03:44:00;101570;;;19.2;100.0
48680;BME280;34475;51.658;5.634;2022-07-24T03:45:00;101570;;;19.2;100.0
48680;BME280;34475;51.658;5.634;2022-07-24T03:46:00;101570;;;19.2;100.0
48680;BME280;34475;51.658;5.634;2022-07-24T03:47:00;101570;;;19.2;100.0
48680;BME280;34475;51.658;5.634;2022-07-24T03:48:00;101570;;;19.1;100.0
48680;BME280;34475;51.658;5.634;2022-07-24T03:49:00;101570;;;19.1;100.0
48680;BME280;34475;51.658;5.634;2022-07-24T03:50:00;101570;;;19.2;100.0
48680;BME280;34475;51.658;5.634;2022-07-24T03:51:00;101570;;;19.2;100.0
48680;BME280;34475;51.658;5.634;2022-07-24T03:52:00;101580;;;19.0;100.0
48680;BME280;34475;51.658;5.634;2022-07-24T03:53:00;101580;;;19.0;100.0
48680;BME280;34475;51.658;5.634;2022-07-24T03:54:00;101580;;;19.2;100.0
48680;BME280;34475;51.658;5.634;2022-07-24T03:55:00;101580;;;19.2;100.0
48680;BME280;34475;51.658;5.634;2022-07-24T03:56:00;101580;;;19.0;100.0
48680;BME280;34475;51.658;5.634;2022-07-24T03:57:00;101580;;;19.0;100.0
48680;BME280;34475;51.658;5.634;2022-07-24T03:58:00;101580;;;19.1;100.0
48680;BME280;34475;51.658;5.634;2022-07-24T03:59:00;101580;;;19.1;100.0
48680;BME280;34475;51.658;5.634;2022-07-24T04:00:00;101580;;;19.0;100.0
48680;BME280;34475;51.658;5.634;2022-07-24T04:01:00;101580;;;19.0;100.0
48680;BME280;34475;51.658;5.634;2022-07-24T04:02:00;101570;;;19.1;100.0
48680;BME280;34475;51.658;5.634;2022-07-24T04:03:00;101570;;;19.1;100.0
48680;BME280;34475;51.658;5.634;2022-07-24T04:04:00;101570;;;19.0;100.0
48680;BME280;34475;51.658;5.634;2022-07-24T04:05:00;101570;;;19.0;100.0
48680;BME280;34475;51.658;5.634;2022-07-24T04:06:01;101570;;;19.1;100.0
48680;BME280;34475;51.658;5.634;2022-07-24T04:07:00;101570;;;19.1;100.0
48680;BME280;34475;51.658;5.634;2022-07-24T04:08:00;101570;;;19.0;100.0
48680;BME280;34475;51.658;5.634;2022-07-24T04:09:00;101570;;;19.0;100.0
48680;BME280;34475;51.658;5.634;2022-07-24T04:10:00;101570;;;19.0;100.0
48680;BME280;34475;51.658;5.634;2022-07-24T04:11:00;101570;;;19.0;100.0
48680;BME280;34475;51.658;5.634;2022-07-24T04:12:00;101570;;;19.1;100.0
48680;BME280;34475;51.658;5.634;2022-07-24T04:13:00;101570;;;19.1;100.0
48680;BME280;34475;51.658;5.634;2022-07-24T04:14:00;101570;;;19.1;100.0
48680;BME280;34475;51.658;5.634;2022-07-24T04:15:00;101570;;;19.1;100.0
48680;BME280;34475;51.658;5.634;2022-07-24T04:16:00;101570;;;19.1;100.0
48680;BME280;34475;51.658;5.634;2022-07-24T04:17:00;101570;;;19.1;100.0
48680;BME280;34475;51.658;5.634;2022-07-24T04:18:00;101570;;;19.0;100.0
48680;BME280;34475;51.658;5.634;2022-07-24T04:19:00;101570;;;19.0;100.0
48680;BME280;34475;51.658;5.634;2022-07-24T04:20:00;101570;;;18.9;100.0
48680;BME280;34475;51.658;5.634;2022-07-24T04:21:00;101570;;;18.9;100.0
48680;BME280;34475;51.658;5.634;2022-07-24T04:22:00;101570;;;19.0;100.0
48680;BME280;34475;51.658;5.634;2022-07-24T04:23:00;101570;;;19.0;100.0
48680;BME280;34475;51.658;5.634;2022-07-24T04:24:00;101560;;;19.0;100.0
48680;BME280;34475;51.658;5.634;2022-07-24T04:25:00;101560;;;19.0;100.0
48680;BME280;34475;51.658;5.634;2022-07-24T04:26:00;101560;;;19.1;100.0
48680;BME280;34475;51.658;5.634;2022-07-24T04:27:00;101560;;;19.1;100.0
48680;BME280;34475;51.658;5.634;2022-07-24T04:28:01;101570;;;19.1;100.0
48680;BME280;34475;51.658;5.634;2022-07-24T04:29:00;101570;;;19.1;100.0
48680;BME280;34475;51.658;5.634;2022-07-24T04:30:00;101570;;;19.1;100.0
48680;BME280;34475;51.658;5.634;2022-07-24T04:31:00;101570;;;19.1;100.0
48680;BME280;34475;51.658;5.634;2022-07-24T04:32:00;101570;;;19.1;100.0
48680;BME280;34475;51.658;5.634;2022-07-24T04:33:00;101570;;;19.1;100.0
48680;BME280;34475;51.658;5.634;2022-07-24T04:34:00;101570;;;19.1;100.0
48680;BME280;34475;51.658;5.634;2022-07-24T04:35:00;101570;;;19.1;100.0
48680;BME280;34475;51.658;5.634;2022-07-24T04:36:00;101570;;;19.2;100.0
48680;BME280;34475;51.658;5.634;2022-07-24T04:37:00;101570;;;19.2;100.0
48680;BME280;34475;51.658;5.634;2022-07-24T04:38:00;101580;;;19.1;100.0
48680;BME280;34475;51.658;5.634;2022-07-24T04:39:00;101580;;;19.1;100.0
48680;BME280;34475;51.658;5.634;2022-07-24T04:40:00;101580;;;19.1;100.0
48680;BME280;34475;51.658;5.634;2022-07-24T04:41:00;101580;;;19.1;100.0
48680;BME280;34475;51.658;5.634;2022-07-24T04:42:00;101580;;;19.1;100.0
48680;BME280;34475;51.658;5.634;2022-07-24T04:43:00;101580;;;19.1;100.0
48680;BME280;34475;51.658;5.634;2022-07-24T04:44:00;101590;;;19.2;100.0
48680;BME280;34475;51.658;5.634;2022-07-24T04:45:00;101590;;;19.2;100.0
48680;BME280;34475;51.658;5.634;2022-07-24T04:46:00;101590;;;19.1;100.0
48680;BME280;34475;51.658;5.634;2022-07-24T04:47:00;101590;;;19.1;100.0
48680;BME280;34475;51.658;5.634;2022-07-24T04:48:00;101590;;;19.1;100.0
48680;BME280;34475;51.658;5.634;2022-07-24T04:49:00;101590;;;19.1;100.0
48680;BME280;34475;51.658;5.634;2022-07-24T04:50:00;101590;;;19.1;100.0
48680;BME280;34475;51.658;5.634;2022-07-24T04:51:00;101590;;;19.1;100.0
48680;BME280;34475;51.658;5.634;2022-07-24T04:52:00;101590;;;19.1;100.0
48680;BME280;34475;51.658;5.634;2022-07-24T04:53:00;101590;;;19.1;100.0
48680;BME280;34475;51.658;5.634;2022-07-24T04:54:00;101590;;;19.2;100.0
48680;BME280;34475;51.658;5.634;2022-07-24T04:55:00;101590;;;19.2;100.0
48680;BME280;34475;51.658;5.634;2022-07-24T04:56:00;101600;;;19.1;100.0
48680;BME280;34475;51.658;5.634;2022-07-24T04:57:00;101600;;;19.1;100.0
48680;BME280;34475;51.658;5.634;2022-07-24T04:58:00;101600;;;19.2;100.0
48680;BME280;34475;51.658;5.634;2022-07-24T04:59:00;101600;;;19.2;100.0
48680;BME280;34475;51.658;5.634;2022-07-24T05:00:00;101590;;;19.1;100.0
48680;BME280;34475;51.658;5.634;2022-07-24T05:01:00;101590;;;19.1;100.0
48680;BME280;34475;51.658;5.634;2022-07-24T05:02:00;101590;;;19.1;100.0
48680;BME280;34475;51.658;5.634;2022-07-24T05:03:00;101590;;;19.1;100.0
48680;BME280;34475;51.658;5.634;2022-07-24T05:04:00;101580;;;19.1;100.0
48680;BME280;34475;51.658;5.634;2022-07-24T05:05:00;101580;;;19.1;100.0
48680;BME280;34475;51.658;5.634;2022-07-24T05:06:00;101580;;;19.1;100.0
48680;BME280;34475;51.658;5.634;2022-07-24T05:07:00;101580;;;19.1;100.0
48680;BME280;34475;51.658;5.634;2022-07-24T05:08:00;101590;;;19.1;100.0
48680;BME280;34475;51.658;5.634;2022-07-24T05:09:00;101590;;;19.1;100.0
48680;BME280;34475;51.658;5.634;2022-07-24T05:10:00;101590;;;19.1;100.0
48680;BME280;34475;51.658;5.634;2022-07-24T05:11:00;101590;;;19.1;100.0
48680;BME280;34475;51.658;5.634;2022-07-24T05:12:00;101590;;;19.2;100.0
48680;BME280;34475;51.658;5.634;2022-07-24T05:13:00;101590;;;19.2;100.0
48680;BME280;34475;51.658;5.634;2022-07-24T05:14:00;101580;;;19.3;100.0
48680;BME280;34475;51.658;5.634;2022-07-24T05:15:00;101580;;;19.3;100.0
48680;BME280;34475;51.658;5.634;2022-07-24T05:16:00;101580;;;19.2;100.0
48680;BME280;34475;51.658;5.634;2022-07-24T05:17:00;101580;;;19.2;100.0
48680;BME280;34475;51.658;5.634;2022-07-24T05:18:00;101580;;;19.2;100.0
48680;BME280;34475;51.658;5.634;2022-07-24T05:19:00;101580;;;19.2;100.0
48680;BME280;34475;51.658;5.634;2022-07-24T05:20:00;101590;;;19.3;100.0
48680;BME280;34475;51.658;5.634;2022-07-24T05:21:00;101590;;;19.3;100.0
48680;BME280;34475;51.658;5.634;2022-07-24T05:22:00;101590;;;19.3;100.0
48680;BME280;34475;51.658;5.634;2022-07-24T05:23:00;101590;;;19.3;100.0
48680;BME280;34475;51.658;5.634;2022-07-24T05:24:00;101580;;;19.3;100.0
48680;BME280;34475;51.658;5.634;2022-07-24T05:25:00;101580;;;19.3;100.0
48680;BME280;34475;51.658;5.634;2022-07-24T05:26:00;101580;;;19.3;100.0
48680;BME280;34475;51.658;5.634;2022-07-24T05:27:00;101580;;;19.3;100.0
48680;BME280;34475;51.658;5.634;2022-07-24T05:28:00;101580;;;19.4;100.0
48680;BME280;34475;51.658;5.634;2022-07-24T05:29:01;101580;;;19.4;100.0
48680;BME280;34475;51.658;5.634;2022-07-24T05:30:00;101580;;;19.4;100.0